Change the Weather History Date:

Tuesday, March 11, 2014

  Actual Average Record
Temperature  
Mean Temperature 44 °F -  
Max Temperature 53 °F 48 °F 75 °F (2011)
Min Temperature 35 °F 24 °F 3 °F (1998)
Degree Days  
Heating Degree Days 21    
Moisture  
Dew Point 29 °F    
Average Humidity 58    
Maximum Humidity 87    
Minimum Humidity 37    
Precipitation  
Precipitation 0.00 in - - ()
Sea Level Pressure  
Sea Level Pressure 29.70 in    
Wind  
Wind Speed 16 mph (NW)    
Max Wind Speed 43 mph    
Max Gust Speed 53 mph    
Visibility 10 miles    
Events      
Averages and records for this station are not official NWS values.
T = Trace of Precipitation, MM = Missing Value Source: NWS Daily Summary

Daily Weather History Graph

Daily Weather History Graph

Search for Another Location

Airport or City:

Trip Planner

Search our weather history database for the weather conditions in past years. The results will help you decide how hot, cold, wet, or windy it might be!

Date:

Astronomy

Mar. 11, 2014 Rise Set
Actual Time 7:54 AM CDT 7:40 PM CDT
Civil Twilight 7:27 AM CDT 8:06 PM CDT
Nautical Twilight 6:57 AM CDT 8:37 PM CDT
Astronomical Twilight 6:26 AM CDT 9:08 PM CDT
Moon 3:20 PM CDT (3/11) 4:47 AM CDT (3/11)
Length of Visible Light 12h 38m
Length of Day
11h 45m
Waxing Gibbous, 78% of the Moon is Illuminated
Mar 11
Waxing Gibbous
Mar 16
Full
Mar 23
Last Quarter
Mar 30
New
Apr 7
First Quarter

Hourly Weather History & Observations

Time (CDT) Temp. Windchill Dew Point Humidity Pressure Visibility Wind Dir Wind Speed Gust Speed Precip Events Conditions
12:15 AM 48.2 °F - 24.8 °F 40% 29.61 in 10.0 mi SSE 8.1 mph - N/A   Clear
12:35 AM 50.0 °F - 24.8 °F 37% 29.60 in 10.0 mi SSE 8.1 mph - N/A   Clear
12:55 AM 48.2 °F - 24.8 °F 40% 29.59 in 10.0 mi South 4.6 mph - N/A   Clear
1:15 AM 48.2 °F - 23.0 °F 37% 29.58 in 10.0 mi SSE 5.8 mph - N/A   Clear
1:35 AM 48.2 °F - 23.0 °F 37% 29.57 in 10.0 mi SSE 4.6 mph - N/A   Clear
1:55 AM 48.2 °F - 23.0 °F 37% 29.56 in 10.0 mi South 3.5 mph - N/A   Clear
2:15 AM 48.2 °F - 23.0 °F 37% 29.54 in 10.0 mi South 5.8 mph - N/A   Clear
2:35 AM 46.4 °F 43.5 °F 23.0 °F 40% 29.54 in 10.0 mi South 5.8 mph - N/A   Clear
2:55 AM 46.4 °F 42.9 °F 23.0 °F 40% 29.52 in 10.0 mi South 6.9 mph - N/A   Clear
3:15 AM 44.6 °F 40.2 °F 23.0 °F 43% 29.51 in 10.0 mi South 8.1 mph - N/A   Clear
3:35 AM 42.8 °F 38.6 °F 23.0 °F 46% 29.50 in 10.0 mi South 6.9 mph - N/A   Clear
3:55 AM 42.8 °F 38.6 °F 24.8 °F 49% 29.48 in 10.0 mi South 6.9 mph - N/A   Clear
4:15 AM 42.8 °F 39.3 °F 24.8 °F 49% 29.48 in 10.0 mi South 5.8 mph - N/A   Clear
4:35 AM 41.0 °F 37.1 °F 24.8 °F 53% 29.46 in 10.0 mi South 5.8 mph - N/A   Clear
4:55 AM 39.2 °F 35.0 °F 24.8 °F 56% 29.45 in 10.0 mi South 5.8 mph - N/A   Clear
5:15 AM 39.2 °F 37.0 °F 24.8 °F 56% 29.45 in 10.0 mi South 3.5 mph - N/A   Clear
5:35 AM 37.4 °F 31.4 °F 23.0 °F 56% 29.44 in 10.0 mi South 8.1 mph - N/A   Clear
5:55 AM 37.4 °F 31.4 °F 24.8 °F 60% 29.43 in 10.0 mi South 8.1 mph - N/A   Clear
6:15 AM 41.0 °F 35.2 °F 24.8 °F 53% 29.42 in 10.0 mi South 9.2 mph 16.1 mph N/A   Clear
6:35 AM 42.8 °F 40.1 °F 24.8 °F 49% 29.44 in 10.0 mi WSW 4.6 mph - N/A   Clear
6:55 AM 42.8 °F 38.0 °F 23.0 °F 46% 29.43 in 10.0 mi SW 8.1 mph - N/A   Clear
7:15 AM 42.8 °F 38.0 °F 24.8 °F 49% 29.42 in 10.0 mi SW 8.1 mph - N/A   Clear
7:35 AM 41.0 °F 37.1 °F 23.0 °F 49% 29.43 in 10.0 mi West 5.8 mph - N/A   Clear
7:55 AM 42.8 °F 39.3 °F 23.0 °F 46% 29.42 in 10.0 mi SW 5.8 mph - N/A   Clear
8:15 AM 41.0 °F 39.0 °F 24.8 °F 53% 29.42 in 10.0 mi SSW 3.5 mph - N/A   Clear
8:35 AM 41.0 °F 38.0 °F 26.6 °F 57% 29.43 in 10.0 mi West 4.6 mph - N/A   Clear
8:55 AM 41.0 °F 38.0 °F 26.6 °F 57% 29.44 in 10.0 mi West 4.6 mph - N/A   Clear
9:15 AM 48.2 °F - 26.6 °F 43% 29.44 in 10.0 mi NNW 18.4 mph - N/A   Clear
9:35 AM 50.0 °F - 26.6 °F 40% 29.45 in 10.0 mi NNW 23.0 mph 29.9 mph N/A   Clear
9:55 AM 53.6 °F - 28.4 °F 38% 29.47 in 10.0 mi NNW 32.2 mph 39.1 mph N/A   Clear
10:15 AM 51.8 °F - 28.4 °F 41% 29.49 in 10.0 mi NNW 35.7 mph 43.7 mph N/A   Clear
10:35 AM 50.0 °F - 32.0 °F 50% 29.50 in 10.0 mi NNW 36.8 mph 46.0 mph N/A   Clear
10:55 AM 48.2 °F - 35.6 °F 62% 29.51 in 10.0 mi NNW 35.7 mph 44.9 mph N/A   Clear
11:15 AM 46.4 °F 36.5 °F 35.6 °F 66% 29.53 in 10.0 mi NNW 34.5 mph 49.5 mph N/A   Clear
11:35 AM 46.4 °F 36.1 °F 35.6 °F 66% 29.54 in 10.0 mi NNW 38.0 mph 46.0 mph N/A   Clear
11:55 AM 46.4 °F 35.7 °F 33.8 °F 62% 29.56 in 10.0 mi NNW 41.4 mph 50.6 mph N/A   Clear
12:15 PM 48.2 °F - 33.8 °F 58% 29.58 in 10.0 mi NNW 41.4 mph 50.6 mph N/A   Clear
12:35 PM 50.0 °F - 33.8 °F 54% 29.60 in 10.0 mi NNW 41.4 mph 48.3 mph N/A   Clear
12:55 PM 50.0 °F - 32.0 °F 50% 29.62 in 10.0 mi NNW 36.8 mph 50.6 mph N/A   Clear
1:15 PM 50.0 °F - 32.0 °F 50% 29.64 in 10.0 mi NNW 36.8 mph 49.5 mph N/A   Clear
1:35 PM 48.2 °F - 30.2 °F 50% 29.66 in 10.0 mi North 39.1 mph 51.8 mph N/A   Partly Cloudy
1:55 PM 48.2 °F - 32.0 °F 54% 29.68 in 10.0 mi North 40.3 mph 52.9 mph N/A   Mostly Cloudy
2:15 PM 48.2 °F - 30.2 °F 50% 29.70 in 10.0 mi North 42.6 mph 49.5 mph N/A   Overcast
2:35 PM 46.4 °F 35.7 °F 30.2 °F 53% 29.70 in 10.0 mi North 41.4 mph 47.2 mph N/A   Overcast
2:55 PM 44.6 °F 33.6 °F 30.2 °F 57% 29.72 in 10.0 mi North 38.0 mph 44.9 mph N/A   Overcast
3:15 PM 44.6 °F 33.3 °F 30.2 °F 57% 29.74 in 10.0 mi North 40.3 mph 47.2 mph N/A   Overcast
3:35 PM 44.6 °F 34.4 °F 30.2 °F 57% 29.77 in 10.0 mi North 32.2 mph 46.0 mph N/A   Overcast
3:55 PM 44.6 °F 33.6 °F 30.2 °F 57% 29.79 in 10.0 mi North 38.0 mph 44.9 mph N/A   Overcast
4:15 PM 44.6 °F 34.2 °F 30.2 °F 57% 29.81 in 10.0 mi North 33.4 mph 43.7 mph N/A   Overcast
4:35 PM 44.6 °F 33.8 °F 32.0 °F 61% 29.83 in 10.0 mi North 36.8 mph 47.2 mph N/A   Overcast
4:55 PM 44.6 °F 34.4 °F 32.0 °F 61% 29.84 in 10.0 mi North 32.2 mph 44.9 mph N/A   Overcast
5:15 PM 44.6 °F 33.5 °F 32.0 °F 61% 29.86 in 10.0 mi North 39.1 mph 49.5 mph N/A   Overcast
5:35 PM 44.6 °F 33.8 °F 30.2 °F 57% 29.88 in 10.0 mi North 36.8 mph 47.2 mph N/A   Overcast
5:55 PM 42.8 °F 31.1 °F 30.2 °F 61% 29.90 in 10.0 mi North 38.0 mph 46.0 mph N/A   Overcast
6:15 PM 42.8 °F 31.1 °F 30.2 °F 61% 29.92 in 10.0 mi NNW 38.0 mph 50.6 mph N/A   Overcast
6:35 PM 41.0 °F 29.3 °F 32.0 °F 70% 29.95 in 10.0 mi North 33.4 mph 46.0 mph N/A   Overcast
6:55 PM 39.2 °F 26.6 °F 33.8 °F 81% 29.98 in 10.0 mi North 34.5 mph 43.7 mph N/A   Mostly Cloudy
7:15 PM 37.4 °F 24.8 °F 33.8 °F 87% 30.00 in 10.0 mi North 31.1 mph 38.0 mph N/A   Mostly Cloudy
7:35 PM 37.4 °F 25.4 °F 33.8 °F 87% 30.03 in 10.0 mi North 27.6 mph 36.8 mph N/A   Overcast
7:55 PM 37.4 °F 25.6 °F 33.8 °F 87% 30.05 in 10.0 mi North 26.5 mph 33.4 mph N/A   Overcast
8:15 PM 37.4 °F 25.2 °F 32.0 °F 81% 30.07 in 10.0 mi North 28.8 mph 41.4 mph N/A   Overcast
8:35 PM 37.4 °F 26.1 °F 33.8 °F 87% 30.07 in 10.0 mi North 24.2 mph 31.1 mph N/A   Overcast
8:55 PM 37.4 °F 25.9 °F 33.8 °F 87% 30.07 in 10.0 mi North 25.3 mph 33.4 mph N/A   Overcast
9:15 PM 37.4 °F 26.9 °F 33.8 °F 87% 30.11 in 10.0 mi North 20.7 mph 27.6 mph N/A   Mostly Cloudy
9:35 PM 37.4 °F 27.8 °F 33.8 °F 87% 30.12 in 10.0 mi NNW 17.3 mph 23.0 mph N/A   Mostly Cloudy
9:55 PM 37.4 °F 27.8 °F 33.8 °F 87% 30.13 in 10.0 mi North 17.3 mph - N/A   Overcast
10:35 PM 37.4 °F 28.9 °F 32.0 °F 81% 30.17 in 10.0 mi NNW 13.8 mph - N/A   Mostly Cloudy
10:55 PM 37.4 °F 27.5 °F 30.2 °F 75% 30.17 in 10.0 mi North 18.4 mph 23.0 mph N/A   Scattered Clouds
11:15 PM 37.4 °F 28.2 °F 28.4 °F 70% 30.19 in 10.0 mi NNW 16.1 mph - N/A   Mostly Cloudy
11:35 PM 35.6 °F 27.5 °F 28.4 °F 75% 30.19 in 10.0 mi NNW 11.5 mph - N/A   Overcast
11:55 PM 35.6 °F 27.1 °F 28.4 °F 75% 30.19 in 10.0 mi NNW 12.7 mph - N/A   Scattered Clouds